createdAt,value
2019-03-16T00:03:21.702Z,7.27
2019-03-16T00:08:14.824Z,8.30
2019-03-16T00:13:08.033Z,8.80
2019-03-16T00:18:01.218Z,5.90
2019-03-16T00:22:57.539Z,7.37
2019-03-16T00:27:50.718Z,9.83
2019-03-16T00:32:43.839Z,9.97
2019-03-16T00:37:37.301Z,8.23
2019-03-16T00:42:30.393Z,6.20
2019-03-16T00:47:23.486Z,9.10
2019-03-16T00:52:16.590Z,7.90
2019-03-16T00:57:09.786Z,6.80
2019-03-16T01:02:02.997Z,9.13
2019-03-16T01:06:56.209Z,7.07
2019-03-16T01:11:50.374Z,5.50
2019-03-16T01:16:43.459Z,8.90
2019-03-16T01:21:36.582Z,6.10
2019-03-16T01:26:29.776Z,7.47
2019-03-16T01:31:23.411Z,7.20
2019-03-16T01:36:16.601Z,11.00
2019-03-16T01:41:09.896Z,8.73
2019-03-16T01:46:10.070Z,7.33
2019-03-16T01:51:03.412Z,6.10
2019-03-16T01:55:57.316Z,7.77
2019-03-16T02:00:50.507Z,7.67
2019-03-16T02:05:43.704Z,6.53
2019-03-16T02:10:37.015Z,6.90
2019-03-16T02:15:30.217Z,5.23
2019-03-16T02:20:26.303Z,5.93
2019-03-16T02:25:19.380Z,6.23
2019-03-16T02:30:12.982Z,7.07
2019-03-16T02:35:06.477Z,7.70
2019-03-16T02:39:59.627Z,7.30
2019-03-16T02:44:52.737Z,5.77
2019-03-16T02:49:45.894Z,6.00
2019-03-16T02:54:39.038Z,5.57
2019-03-16T02:59:32.131Z,6.00
2019-03-16T03:04:25.462Z,7.33
2019-03-16T03:09:18.682Z,5.27
2019-03-16T03:14:11.891Z,8.90
2019-03-16T03:19:05.091Z,4.13
2019-03-16T03:23:58.390Z,6.87
2019-03-16T03:28:52.035Z,4.83
2019-03-16T03:34:00.320Z,5.33
2019-03-16T03:38:40.220Z,5.23
2019-03-16T03:43:33.397Z,4.93
2019-03-16T03:48:26.591Z,8.57
2019-03-16T03:53:19.824Z,5.17
2019-03-16T03:58:13.032Z,5.83
2019-03-16T04:03:06.152Z,5.70
2019-03-16T04:07:59.335Z,7.87
2019-03-16T04:12:54.519Z,5.80
2019-03-16T04:17:47.606Z,7.57
2019-03-16T04:22:40.808Z,6.40
2019-03-16T04:27:35.019Z,6.83
2019-03-16T04:32:28.080Z,5.80
2019-03-16T04:37:21.193Z,3.33
2019-03-16T04:42:14.254Z,4.80
2019-03-16T04:47:07.347Z,3.57
2019-03-16T04:52:00.508Z,5.97
2019-03-16T04:56:53.566Z,3.87
2019-03-16T05:01:46.747Z,3.60
2019-03-16T05:06:39.924Z,4.43
2019-03-16T05:11:32.991Z,3.03
2019-03-16T05:16:26.119Z,2.93
2019-03-16T05:21:19.197Z,2.43
2019-03-16T05:26:12.274Z,2.33
2019-03-16T05:31:05.391Z,3.70
2019-03-16T05:35:58.510Z,1.57
2019-03-16T05:40:51.617Z,1.57
2019-03-16T05:45:44.651Z,1.70
2019-03-16T05:50:37.810Z,3.50
2019-03-16T05:55:31.009Z,2.17
2019-03-16T06:00:24.107Z,2.10
2019-03-16T06:05:17.205Z,5.07
2019-03-16T06:10:10.601Z,1.40
2019-03-16T06:15:03.855Z,1.93
2019-03-16T06:19:56.943Z,1.67
2019-03-16T06:24:50.055Z,1.80
2019-03-16T06:29:46.191Z,1.13
2019-03-16T06:34:39.332Z,1.23
2019-03-16T06:39:32.405Z,1.57
2019-03-16T06:44:25.514Z,1.70
2019-03-16T06:49:18.600Z,2.60
2019-03-16T06:54:11.922Z,2.00
2019-03-16T06:59:06.076Z,2.67
2019-03-16T07:03:59.309Z,2.47
2019-03-16T07:08:52.604Z,1.47
2019-03-16T07:13:45.832Z,1.93
2019-03-16T07:18:39.029Z,1.30
2019-03-16T07:23:32.253Z,1.33
2019-03-16T07:28:25.860Z,0.90
2019-03-16T07:33:19.947Z,1.47
2019-03-16T07:38:13.131Z,1.70
2019-03-16T07:43:06.333Z,2.33
2019-03-16T07:47:59.628Z,2.60
2019-03-16T07:52:53.865Z,1.87
2019-03-16T07:57:47.186Z,1.50
2019-03-16T08:02:40.384Z,1.93
2019-03-16T08:07:33.594Z,1.53
2019-03-16T08:12:26.701Z,1.43
2019-03-16T08:17:19.895Z,2.67
2019-03-16T08:22:12.978Z,4.43
2019-03-16T08:27:07.498Z,3.23
2019-03-16T08:32:00.988Z,3.13
2019-03-16T08:36:54.312Z,4.40
2019-03-16T08:41:47.626Z,2.77
2019-03-16T08:46:40.813Z,2.50
2019-03-16T08:51:34.066Z,2.37
2019-03-16T08:56:27.344Z,2.13
2019-03-16T09:01:20.453Z,1.83
2019-03-16T09:06:13.530Z,2.30
2019-03-16T09:11:07.465Z,2.63
2019-03-16T09:16:00.639Z,3.43
2019-03-16T09:20:53.768Z,2.20
2019-03-16T09:25:46.955Z,2.27
2019-03-16T09:30:40.551Z,2.47
2019-03-16T09:35:33.730Z,2.40
2019-03-16T09:40:26.885Z,2.03
2019-03-16T09:45:20.146Z,4.83
2019-03-16T09:50:13.656Z,2.20
2019-03-16T09:55:06.998Z,2.00
2019-03-16T10:00:00.316Z,1.50
2019-03-16T10:04:53.742Z,2.87
2019-03-16T10:09:47.051Z,2.40
2019-03-16T10:14:40.214Z,2.77
2019-03-16T10:19:33.481Z,2.10
2019-03-16T10:24:26.640Z,1.20
2019-03-16T10:29:19.807Z,1.30
2019-03-16T10:34:13.225Z,1.93
2019-03-16T10:39:07.767Z,0.50
2019-03-16T10:44:01.039Z,3.33
2019-03-16T10:48:54.155Z,1.33
2019-03-16T10:53:47.645Z,1.83
2019-03-16T10:58:40.730Z,2.43
2019-03-16T11:03:33.986Z,1.67
2019-03-16T11:08:27.293Z,1.03
2019-03-16T11:13:20.504Z,1.67
2019-03-16T11:18:13.629Z,1.03
2019-03-16T11:23:06.919Z,1.60
2019-03-16T11:28:00.135Z,2.40
2019-03-16T11:32:53.435Z,1.47
2019-03-16T11:37:46.610Z,1.43
2019-03-16T11:42:39.834Z,2.40
2019-03-16T11:47:33.022Z,2.43
2019-03-16T11:52:26.164Z,2.07
2019-03-16T11:57:19.503Z,1.10
2019-03-16T12:02:12.765Z,1.87
2019-03-16T12:07:06.058Z,1.47
2019-03-16T12:11:59.183Z,2.07
2019-03-16T12:16:52.477Z,3.23
2019-03-16T12:21:45.769Z,1.80
2019-03-16T12:26:39.065Z,2.07
2019-03-16T12:31:32.275Z,2.20
2019-03-16T12:36:25.452Z,1.80
2019-03-16T12:41:18.731Z,1.43
2019-03-16T12:46:11.811Z,2.23
2019-03-16T12:51:05.552Z,4.33
2019-03-16T12:55:58.748Z,2.57
2019-03-16T13:00:52.072Z,1.67
2019-03-16T13:05:45.388Z,2.00
2019-03-16T13:10:38.591Z,2.10
2019-03-16T13:15:31.639Z,1.97
2019-03-16T13:20:24.833Z,3.20
2019-03-16T13:25:18.378Z,1.80
2019-03-16T13:30:13.237Z,1.50
2019-03-16T13:35:06.820Z,2.63
2019-03-16T13:40:00.018Z,2.60
2019-03-16T13:44:53.198Z,2.83
2019-03-16T13:49:46.490Z,3.00
2019-03-16T13:54:39.617Z,2.90
2019-03-16T13:59:32.814Z,2.73
2019-03-16T14:04:26.282Z,3.70
2019-03-16T14:09:20.411Z,2.30
2019-03-16T14:14:13.940Z,4.70
2019-03-16T14:19:07.423Z,3.53
2019-03-16T14:24:00.731Z,2.57
2019-03-16T14:28:53.964Z,2.50
2019-03-16T14:33:48.156Z,2.27
2019-03-16T14:38:41.620Z,2.43
2019-03-16T14:43:34.895Z,3.40
2019-03-16T14:48:28.190Z,1.50
2019-03-16T14:53:21.623Z,3.50
2019-03-16T14:58:15.142Z,2.47
2019-03-16T15:03:08.388Z,1.60
2019-03-16T15:08:10.678Z,4.50
2019-03-16T15:13:04.346Z,2.50
2019-03-16T15:17:57.700Z,4.70
2019-03-16T15:22:53.507Z,3.77
2019-03-16T15:27:46.454Z,2.13
2019-03-16T15:32:39.661Z,1.93
2019-03-16T15:37:32.918Z,4.13
2019-03-16T15:42:26.668Z,2.43
2019-03-16T15:47:19.942Z,2.40
2019-03-16T15:52:13.212Z,3.43
2019-03-16T15:57:06.947Z,3.30
2019-03-16T16:02:00.443Z,5.07
2019-03-16T16:06:53.906Z,2.70
2019-03-16T16:11:47.265Z,2.53
2019-03-16T16:16:40.389Z,3.90
2019-03-16T16:21:33.786Z,2.03
2019-03-16T16:26:27.914Z,3.57
2019-03-16T16:31:21.528Z,3.47
2019-03-16T16:36:15.122Z,3.07
2019-03-16T16:41:08.276Z,3.23
2019-03-16T16:46:01.958Z,4.13
2019-03-16T16:50:55.682Z,2.70
2019-03-16T16:55:49.079Z,2.80
2019-03-16T17:00:42.298Z,5.17
2019-03-16T17:05:35.926Z,3.00
2019-03-16T17:10:29.228Z,1.47
2019-03-16T17:15:22.416Z,3.23
2019-03-16T17:20:15.625Z,3.07
2019-03-16T17:25:09.309Z,4.07
2019-03-16T17:30:02.738Z,1.90
2019-03-16T17:34:55.962Z,2.83
2019-03-16T17:39:49.323Z,4.43
2019-03-16T17:44:42.592Z,5.37
2019-03-16T17:49:35.737Z,4.03
2019-03-16T17:54:28.878Z,2.43
2019-03-16T17:59:23.865Z,6.77
2019-03-16T18:04:17.326Z,2.97
2019-03-16T18:09:10.982Z,4.10
2019-03-16T18:14:04.516Z,4.30
2019-03-16T18:18:58.298Z,3.57
2019-03-16T18:23:52.160Z,5.50
2019-03-16T18:28:45.531Z,5.10
2019-03-16T18:33:38.727Z,4.20
2019-03-16T18:38:32.081Z,5.37
2019-03-16T18:43:25.304Z,3.77
2019-03-16T18:48:18.895Z,3.93
2019-03-16T18:53:12.174Z,3.57
2019-03-16T18:58:05.691Z,4.47
2019-03-16T19:03:05.937Z,7.03
2019-03-16T19:07:59.048Z,4.27
2019-03-16T19:12:52.566Z,7.40
2019-03-16T19:17:58.148Z,7.90
2019-03-16T19:22:41.635Z,4.87
2019-03-16T19:27:34.886Z,4.57
2019-03-16T19:32:33.732Z,4.97
2019-03-16T19:37:23.366Z,5.77
2019-03-16T19:42:16.791Z,4.80
2019-03-16T19:47:09.866Z,3.70
2019-03-16T19:52:03.034Z,5.50
2019-03-16T19:56:56.136Z,6.13
2019-03-16T20:01:49.271Z,7.77
2019-03-16T20:06:42.388Z,4.87
2019-03-16T20:11:37.393Z,5.70
2019-03-16T20:16:30.527Z,4.17
2019-03-16T20:21:23.943Z,4.37
2019-03-16T20:26:17.069Z,4.67
2019-03-16T20:31:10.138Z,5.97
2019-03-16T20:36:03.341Z,7.70
2019-03-16T20:40:56.460Z,6.23
2019-03-16T20:45:51.096Z,6.13
2019-03-16T20:50:44.185Z,5.07
2019-03-16T20:55:37.247Z,3.77
2019-03-16T21:00:30.323Z,3.53
2019-03-16T21:05:23.479Z,3.67
2019-03-16T21:10:16.605Z,3.10
2019-03-16T21:15:10.032Z,3.93
2019-03-16T21:20:04.091Z,6.07
2019-03-16T21:24:57.226Z,2.90
2019-03-16T21:29:50.353Z,3.03
2019-03-16T21:34:44.411Z,3.70
2019-03-16T21:39:39.443Z,2.33
2019-03-16T21:44:32.538Z,5.43
2019-03-16T21:49:25.628Z,3.63
2019-03-16T21:54:18.763Z,4.27
2019-03-16T21:59:11.911Z,4.40
2019-03-16T22:04:04.998Z,6.30
2019-03-16T22:08:58.143Z,5.13
2019-03-16T22:13:51.250Z,2.70
2019-03-16T22:18:44.413Z,3.30
2019-03-16T22:23:37.516Z,2.47
2019-03-16T22:28:30.634Z,2.90
2019-03-16T22:33:23.767Z,3.83
2019-03-16T22:38:16.879Z,1.80
2019-03-16T22:43:09.990Z,2.73
2019-03-16T22:48:03.099Z,2.40
2019-03-16T22:52:56.174Z,3.03
2019-03-16T22:57:49.451Z,3.83
2019-03-16T23:02:42.723Z,3.87
2019-03-16T23:07:35.964Z,3.13
2019-03-16T23:12:29.128Z,2.70
2019-03-16T23:17:22.255Z,3.93
2019-03-16T23:22:15.354Z,2.73
2019-03-16T23:27:08.636Z,2.60
2019-03-16T23:32:01.847Z,3.13
2019-03-16T23:36:54.923Z,2.83
2019-03-16T23:41:48.167Z,2.40
2019-03-16T23:46:41.386Z,3.90
2019-03-16T23:51:34.750Z,3.97
2019-03-16T23:56:27.931Z,2.50
